sensor_id;sensor_type;location;lat;lon;timestamp;pressure;altitude;pressure_sealevel;temperature;humidity
4814;BME280;15375;48.540;9.268;2023-05-10T00:01:38;96704.63;;;13.57;100.00
4814;BME280;15375;48.540;9.268;2023-05-10T00:04:03;96723.09;;;13.74;100.00
4814;BME280;15375;48.540;9.268;2023-05-10T00:06:29;96705.81;;;13.56;100.00
4814;BME280;15375;48.540;9.268;2023-05-10T00:08:55;96726.44;;;13.69;100.00
4814;BME280;15375;48.540;9.268;2023-05-10T00:11:20;96709.19;;;13.60;100.00
4814;BME280;15375;48.540;9.268;2023-05-10T00:13:45;96703.22;;;13.52;100.00
4814;BME280;15375;48.540;9.268;2023-05-10T00:16:11;96722.56;;;13.58;100.00
4814;BME280;15375;48.540;9.268;2023-05-10T00:18:38;96721.97;;;13.54;100.00
4814;BME280;15375;48.540;9.268;2023-05-10T00:21:04;96732.03;;;13.57;100.00
4814;BME280;15375;48.540;9.268;2023-05-10T00:23:29;96701.66;;;13.42;100.00
4814;BME280;15375;48.540;9.268;2023-05-10T00:25:55;96724.69;;;13.54;100.00
4814;BME280;15375;48.540;9.268;2023-05-10T00:28:21;96703.28;;;13.30;100.00
4814;BME280;15375;48.540;9.268;2023-05-10T00:30:46;96721.28;;;13.40;100.00
4814;BME280;15375;48.540;9.268;2023-05-10T00:33:12;96717.59;;;13.34;100.00
4814;BME280;15375;48.540;9.268;2023-05-10T00:35:37;96731.97;;;13.48;100.00
4814;BME280;15375;48.540;9.268;2023-05-10T00:38:03;96723.56;;;13.42;100.00
4814;BME280;15375;48.540;9.268;2023-05-10T00:40:29;96735.00;;;13.50;100.00
4814;BME280;15375;48.540;9.268;2023-05-10T00:42:56;96730.72;;;13.39;100.00
4814;BME280;15375;48.540;9.268;2023-05-10T00:45:21;96707.38;;;13.26;100.00
4814;BME280;15375;48.540;9.268;2023-05-10T00:47:47;96736.38;;;13.45;100.00
4814;BME280;15375;48.540;9.268;2023-05-10T00:50:13;96725.38;;;13.36;100.00
4814;BME280;15375;48.540;9.268;2023-05-10T00:52:39;96741.66;;;13.39;100.00
4814;BME280;15375;48.540;9.268;2023-05-10T00:55:06;96745.34;;;13.46;100.00
4814;BME280;15375;48.540;9.268;2023-05-10T00:57:32;96755.13;;;13.47;100.00
4814;BME280;15375;48.540;9.268;2023-05-10T00:59:57;96731.84;;;13.20;100.00
4814;BME280;15375;48.540;9.268;2023-05-10T01:02:23;96743.38;;;13.15;100.00
4814;BME280;15375;48.540;9.268;2023-05-10T01:04:49;96758.03;;;13.21;100.00
4814;BME280;15375;48.540;9.268;2023-05-10T01:07:15;96741.72;;;13.18;100.00
4814;BME280;15375;48.540;9.268;2023-05-10T01:09:40;96734.22;;;13.09;100.00
4814;BME280;15375;48.540;9.268;2023-05-10T01:12:06;96714.94;;;12.91;100.00
4814;BME280;15375;48.540;9.268;2023-05-10T01:14:32;96748.56;;;13.13;100.00
4814;BME280;15375;48.540;9.268;2023-05-10T01:16:59;96757.69;;;13.19;100.00
4814;BME280;15375;48.540;9.268;2023-05-10T01:19:26;96738.09;;;12.99;100.00
4814;BME280;15375;48.540;9.268;2023-05-10T01:22:02;96775.19;;;13.22;100.00
4814;BME280;15375;48.540;9.268;2023-05-10T01:30:05;96778.00;;;13.31;100.00
4814;BME280;15375;48.540;9.268;2023-05-10T01:33:27;96783.19;;;13.29;100.00
4814;BME280;15375;48.540;9.268;2023-05-10T01:35:37;96779.72;;;13.37;100.00
4814;BME280;15375;48.540;9.268;2023-05-10T01:40:46;96778.19;;;13.36;100.00
4814;BME280;15375;48.540;9.268;2023-05-10T01:43:26;96786.13;;;13.43;100.00
4814;BME280;15375;48.540;9.268;2023-05-10T01:46:07;96790.72;;;13.47;100.00
4814;BME280;15375;48.540;9.268;2023-05-10T01:48:41;96771.75;;;13.30;100.00
4814;BME280;15375;48.540;9.268;2023-05-10T01:51:14;96771.88;;;13.27;100.00
4814;BME280;15375;48.540;9.268;2023-05-10T01:53:42;96769.28;;;13.23;100.00
4814;BME280;15375;48.540;9.268;2023-05-10T01:56:11;96777.31;;;13.18;100.00
4814;BME280;15375;48.540;9.268;2023-05-10T01:58:39;96796.03;;;13.19;100.00
4814;BME280;15375;48.540;9.268;2023-05-10T02:01:09;96766.63;;;13.11;100.00
4814;BME280;15375;48.540;9.268;2023-05-10T02:03:35;96792.97;;;13.17;100.00
4814;BME280;15375;48.540;9.268;2023-05-10T02:06:03;96800.19;;;13.24;100.00
4814;BME280;15375;48.540;9.268;2023-05-10T02:08:30;96788.97;;;13.09;100.00
4814;BME280;15375;48.540;9.268;2023-05-10T02:10:58;96798.59;;;13.14;100.00
4814;BME280;15375;48.540;9.268;2023-05-10T02:13:25;96801.66;;;13.16;100.00
4814;BME280;15375;48.540;9.268;2023-05-10T02:15:53;96773.50;;;12.94;100.00
4814;BME280;15375;48.540;9.268;2023-05-10T02:18:19;96783.38;;;12.91;100.00
4814;BME280;15375;48.540;9.268;2023-05-10T02:20:47;96834.72;;;13.21;100.00
4814;BME280;15375;48.540;9.268;2023-05-10T02:23:13;96742.66;;;12.59;100.00
4814;BME280;15375;48.540;9.268;2023-05-10T02:25:41;96750.97;;;12.68;100.00
4814;BME280;15375;48.540;9.268;2023-05-10T02:28:08;96799.97;;;12.97;100.00
4814;BME280;15375;48.540;9.268;2023-05-10T02:30:35;96813.72;;;13.06;100.00
4814;BME280;15375;48.540;9.268;2023-05-10T02:33:04;96809.81;;;12.94;100.00
4814;BME280;15375;48.540;9.268;2023-05-10T02:35:30;96811.78;;;13.06;100.00
4814;BME280;15375;48.540;9.268;2023-05-10T02:37:58;96833.63;;;13.19;100.00
4814;BME280;15375;48.540;9.268;2023-05-10T02:40:25;96810.56;;;13.07;100.00
4814;BME280;15375;48.540;9.268;2023-05-10T02:42:54;96816.69;;;13.11;100.00
4814;BME280;15375;48.540;9.268;2023-05-10T02:45:24;96831.31;;;13.17;100.00
4814;BME280;15375;48.540;9.268;2023-05-10T02:47:51;96820.00;;;13.06;100.00
4814;BME280;15375;48.540;9.268;2023-05-10T02:50:17;96772.59;;;12.75;100.00
4814;BME280;15375;48.540;9.268;2023-05-10T02:52:47;96808.88;;;12.88;100.00
4814;BME280;15375;48.540;9.268;2023-05-10T02:55:16;96733.31;;;12.26;100.00
4814;BME280;15375;48.540;9.268;2023-05-10T02:58:01;96799.84;;;12.78;100.00
4814;BME280;15375;48.540;9.268;2023-05-10T03:00:27;96829.91;;;12.91;100.00
4814;BME280;15375;48.540;9.268;2023-05-10T03:02:52;96821.16;;;12.84;100.00
4814;BME280;15375;48.540;9.268;2023-05-10T03:05:19;96824.59;;;12.75;100.00
4814;BME280;15375;48.540;9.268;2023-05-10T03:07:45;96825.16;;;12.70;100.00
4814;BME280;15375;48.540;9.268;2023-05-10T03:10:11;96821.31;;;12.67;100.00
4814;BME280;15375;48.540;9.268;2023-05-10T03:18:15;96836.75;;;12.61;100.00
4814;BME280;15375;48.540;9.268;2023-05-10T03:20:57;96838.09;;;12.57;100.00
4814;BME280;15375;48.540;9.268;2023-05-10T03:26:05;96836.78;;;12.49;100.00
4814;BME280;15375;48.540;9.268;2023-05-10T03:28:31;96816.03;;;12.39;100.00
4814;BME280;15375;48.540;9.268;2023-05-10T03:30:58;96841.41;;;12.52;100.00
4814;BME280;15375;48.540;9.268;2023-05-10T03:33:24;96849.59;;;12.52;100.00
4814;BME280;15375;48.540;9.268;2023-05-10T03:35:50;96834.09;;;12.36;100.00
4814;BME280;15375;48.540;9.268;2023-05-10T03:38:15;96836.81;;;12.36;100.00
4814;BME280;15375;48.540;9.268;2023-05-10T03:40:41;96833.56;;;12.29;100.00
4814;BME280;15375;48.540;9.268;2023-05-10T03:43:06;96843.53;;;12.23;100.00
4814;BME280;15375;48.540;9.268;2023-05-10T03:45:31;96815.44;;;12.09;100.00
4814;BME280;15375;48.540;9.268;2023-05-10T03:47:57;96793.91;;;11.99;100.00
4814;BME280;15375;48.540;9.268;2023-05-10T03:50:23;96837.38;;;12.31;100.00
4814;BME280;15375;48.540;9.268;2023-05-10T03:52:49;96817.31;;;12.12;100.00
4814;BME280;15375;48.540;9.268;2023-05-10T03:55:14;96806.59;;;12.05;100.00
4814;BME280;15375;48.540;9.268;2023-05-10T03:57:40;96839.59;;;12.24;100.00
4814;BME280;15375;48.540;9.268;2023-05-10T04:00:06;96865.94;;;12.43;100.00
4814;BME280;15375;48.540;9.268;2023-05-10T04:02:31;96866.81;;;12.40;100.00
4814;BME280;15375;48.540;9.268;2023-05-10T04:04:57;96839.03;;;12.29;100.00
4814;BME280;15375;48.540;9.268;2023-05-10T04:07:22;96816.75;;;12.18;100.00
4814;BME280;15375;48.540;9.268;2023-05-10T04:09:47;96847.34;;;12.38;100.00
4814;BME280;15375;48.540;9.268;2023-05-10T04:12:13;96845.81;;;12.37;100.00
4814;BME280;15375;48.540;9.268;2023-05-10T04:14:38;96847.56;;;12.43;100.00
4814;BME280;15375;48.540;9.268;2023-05-10T04:17:04;96866.44;;;12.63;100.00
4814;BME280;15375;48.540;9.268;2023-05-10T04:19:30;96861.38;;;12.61;100.00
4814;BME280;15375;48.540;9.268;2023-05-10T04:21:55;96871.59;;;12.61;100.00
4814;BME280;15375;48.540;9.268;2023-05-10T04:24:21;96858.56;;;12.52;100.00
4814;BME280;15375;48.540;9.268;2023-05-10T04:26:46;96847.63;;;12.52;100.00
4814;BME280;15375;48.540;9.268;2023-05-10T04:29:11;96841.53;;;12.48;100.00
4814;BME280;15375;48.540;9.268;2023-05-10T04:31:37;96853.09;;;12.52;100.00
4814;BME280;15375;48.540;9.268;2023-05-10T04:34:02;96862.72;;;12.57;100.00
4814;BME280;15375;48.540;9.268;2023-05-10T04:36:28;96856.94;;;12.55;100.00
4814;BME280;15375;48.540;9.268;2023-05-10T04:38:54;96865.63;;;12.75;100.00
4814;BME280;15375;48.540;9.268;2023-05-10T04:41:19;96871.03;;;12.66;100.00
4814;BME280;15375;48.540;9.268;2023-05-10T04:43:45;96859.84;;;12.73;100.00
4814;BME280;15375;48.540;9.268;2023-05-10T04:46:11;96855.81;;;12.65;100.00
4814;BME280;15375;48.540;9.268;2023-05-10T04:48:36;96871.88;;;12.75;100.00
4814;BME280;15375;48.540;9.268;2023-05-10T04:51:02;96861.91;;;12.69;100.00
4814;BME280;15375;48.540;9.268;2023-05-10T04:53:29;96860.22;;;12.50;100.00
4814;BME280;15375;48.540;9.268;2023-05-10T04:55:54;96857.25;;;12.57;100.00
4814;BME280;15375;48.540;9.268;2023-05-10T04:58:19;96861.91;;;12.69;100.00
4814;BME280;15375;48.540;9.268;2023-05-10T05:00:45;96866.66;;;12.68;100.00
4814;BME280;15375;48.540;9.268;2023-05-10T05:03:10;96867.63;;;12.62;100.00
4814;BME280;15375;48.540;9.268;2023-05-10T05:05:36;96887.16;;;12.86;100.00
4814;BME280;15375;48.540;9.268;2023-05-10T05:08:01;96861.91;;;12.69;100.00
4814;BME280;15375;48.540;9.268;2023-05-10T05:10:27;96861.16;;;12.68;100.00
4814;BME280;15375;48.540;9.268;2023-05-10T05:12:52;96866.50;;;12.72;100.00
4814;BME280;15375;48.540;9.268;2023-05-10T05:15:17;96867.09;;;12.54;100.00
4814;BME280;15375;48.540;9.268;2023-05-10T05:17:43;96878.22;;;12.72;100.00
4814;BME280;15375;48.540;9.268;2023-05-10T05:20:09;96902.19;;;12.81;100.00
4814;BME280;15375;48.540;9.268;2023-05-10T05:22:36;96876.38;;;12.69;100.00
4814;BME280;15375;48.540;9.268;2023-05-10T05:25:01;96862.56;;;12.73;100.00
4814;BME280;15375;48.540;9.268;2023-05-10T05:27:28;96879.06;;;12.82;100.00
4814;BME280;15375;48.540;9.268;2023-05-10T05:29:55;96892.50;;;12.89;100.00
4814;BME280;15375;48.540;9.268;2023-05-10T05:32:20;96893.16;;;12.93;100.00
4814;BME280;15375;48.540;9.268;2023-05-10T05:34:46;96897.50;;;13.03;100.00
4814;BME280;15375;48.540;9.268;2023-05-10T05:37:15;96906.47;;;13.16;100.00
4814;BME280;15375;48.540;9.268;2023-05-10T05:39:41;96901.22;;;13.09;100.00
4814;BME280;15375;48.540;9.268;2023-05-10T05:42:08;96877.25;;;13.13;100.00
4814;BME280;15375;48.540;9.268;2023-05-10T05:44:33;96903.78;;;13.25;100.00
4814;BME280;15375;48.540;9.268;2023-05-10T05:46:58;96876.25;;;13.07;100.00
4814;BME280;15375;48.540;9.268;2023-05-10T05:49:24;96909.66;;;13.36;100.00
4814;BME280;15375;48.540;9.268;2023-05-10T05:51:49;96913.91;;;13.37;100.00
4814;BME280;15375;48.540;9.268;2023-05-10T05:54:15;96904.19;;;13.36;100.00
4814;BME280;15375;48.540;9.268;2023-05-10T05:56:40;96908.13;;;13.35;100.00
4814;BME280;15375;48.540;9.268;2023-05-10T05:59:06;96909.66;;;13.36;100.00
4814;BME280;15375;48.540;9.268;2023-05-10T06:01:31;96893.47;;;13.08;100.00
4814;BME280;15375;48.540;9.268;2023-05-10T06:03:57;96903.72;;;13.16;100.00
4814;BME280;15375;48.540;9.268;2023-05-10T06:06:22;96901.00;;;13.04;100.00
4814;BME280;15375;48.540;9.268;2023-05-10T06:08:47;96901.91;;;13.01;100.00
4814;BME280;15375;48.540;9.268;2023-05-10T06:11:13;96901.22;;;12.97;100.00
4814;BME280;15375;48.540;9.268;2023-05-10T06:13:38;96890.09;;;12.91;100.00
4814;BME280;15375;48.540;9.268;2023-05-10T06:16:03;96901.69;;;12.95;100.00
4814;BME280;15375;48.540;9.268;2023-05-10T06:18:29;96913.53;;;12.92;100.00
4814;BME280;15375;48.540;9.268;2023-05-10T06:20:55;96928.50;;;13.13;100.00
4814;BME280;15375;48.540;9.268;2023-05-10T06:23:20;96906.91;;;13.02;100.00
4814;BME280;15375;48.540;9.268;2023-05-10T06:25:45;96926.41;;;13.04;100.00
4814;BME280;15375;48.540;9.268;2023-05-10T06:28:11;96937.13;;;13.24;100.00
4814;BME280;15375;48.540;9.268;2023-05-10T06:30:36;96941.19;;;13.41;100.00
4814;BME280;15375;48.540;9.268;2023-05-10T06:33:02;96915.06;;;13.27;100.00
4814;BME280;15375;48.540;9.268;2023-05-10T06:35:28;96941.06;;;13.44;100.00
4814;BME280;15375;48.540;9.268;2023-05-10T06:37:54;96948.59;;;13.53;100.00
4814;BME280;15375;48.540;9.268;2023-05-10T06:40:20;96945.38;;;13.55;100.00
4814;BME280;15375;48.540;9.268;2023-05-10T06:42:46;96950.06;;;13.67;100.00
4814;BME280;15375;48.540;9.268;2023-05-10T06:45:12;96919.78;;;13.49;100.00
4814;BME280;15375;48.540;9.268;2023-05-10T06:47:38;96946.41;;;13.70;100.00
4814;BME280;15375;48.540;9.268;2023-05-10T06:50:03;96957.53;;;13.66;100.00
4814;BME280;15375;48.540;9.268;2023-05-10T06:52:30;96957.91;;;13.56;100.00
4814;BME280;15375;48.540;9.268;2023-05-10T06:54:55;96967.41;;;13.64;100.00
4814;BME280;15375;48.540;9.268;2023-05-10T06:57:21;96940.81;;;13.52;100.00
4814;BME280;15375;48.540;9.268;2023-05-10T06:59:46;96946.41;;;13.70;100.00
4814;BME280;15375;48.540;9.268;2023-05-10T07:02:12;96946.34;;;13.82;100.00
4814;BME280;15375;48.540;9.268;2023-05-10T07:04:38;96926.19;;;13.98;100.00
4814;BME280;15375;48.540;9.268;2023-05-10T07:07:03;96942.59;;;14.20;100.00
4814;BME280;15375;48.540;9.268;2023-05-10T07:09:28;96947.63;;;14.21;100.00
4814;BME280;15375;48.540;9.268;2023-05-10T07:11:55;96949.22;;;14.31;100.00
4814;BME280;15375;48.540;9.268;2023-05-10T07:14:20;96954.88;;;14.37;100.00
4814;BME280;15375;48.540;9.268;2023-05-10T07:16:45;96968.16;;;14.38;100.00
4814;BME280;15375;48.540;9.268;2023-05-10T07:19:11;96967.34;;;14.68;100.00
4814;BME280;15375;48.540;9.268;2023-05-10T07:21:36;96954.78;;;14.49;100.00
4814;BME280;15375;48.540;9.268;2023-05-10T07:24:02;96940.66;;;14.29;100.00
4814;BME280;15375;48.540;9.268;2023-05-10T07:26:28;96948.25;;;14.25;100.00
4814;BME280;15375;48.540;9.268;2023-05-10T07:28:54;96940.88;;;14.13;100.00
4814;BME280;15375;48.540;9.268;2023-05-10T07:31:19;96963.31;;;14.21;100.00
4814;BME280;15375;48.540;9.268;2023-05-10T07:33:44;96978.09;;;14.45;100.00
4814;BME280;15375;48.540;9.268;2023-05-10T07:36:10;96956.75;;;14.40;100.00
4814;BME280;15375;48.540;9.268;2023-05-10T07:38:36;96958.31;;;14.28;100.00
4814;BME280;15375;48.540;9.268;2023-05-10T07:41:01;96970.59;;;14.45;100.00
4814;BME280;15375;48.540;9.268;2023-05-10T07:43:27;96966.78;;;14.43;100.00
4814;BME280;15375;48.540;9.268;2023-05-10T07:45:52;96970.06;;;14.29;100.00
4814;BME280;15375;48.540;9.268;2023-05-10T07:48:18;96978.38;;;14.16;100.00
4814;BME280;15375;48.540;9.268;2023-05-10T07:50:43;96967.09;;;14.14;100.00
4814;BME280;15375;48.540;9.268;2023-05-10T07:53:09;96965.09;;;13.84;100.00
4814;BME280;15375;48.540;9.268;2023-05-10T07:55:35;96973.47;;;14.11;100.00
4814;BME280;15375;48.540;9.268;2023-05-10T07:58:00;96963.22;;;14.02;100.00
4814;BME280;15375;48.540;9.268;2023-05-10T08:00:26;96968.25;;;14.04;100.00
4814;BME280;15375;48.540;9.268;2023-05-10T08:02:52;96956.78;;;13.96;100.00
4814;BME280;15375;48.540;9.268;2023-05-10T08:05:18;96961.81;;;13.98;100.00
4814;BME280;15375;48.540;9.268;2023-05-10T08:07:43;96961.56;;;14.05;100.00
4814;BME280;15375;48.540;9.268;2023-05-10T08:10:10;96977.75;;;14.12;100.00
4814;BME280;15375;48.540;9.268;2023-05-10T08:12:39;96970.41;;;14.09;100.00
4814;BME280;15375;48.540;9.268;2023-05-10T08:15:05;96965.56;;;14.13;100.00
4814;BME280;15375;48.540;9.268;2023-05-10T08:17:31;96953.91;;;14.00;100.00
4814;BME280;15375;48.540;9.268;2023-05-10T08:19:57;96976.13;;;14.24;100.00
4814;BME280;15375;48.540;9.268;2023-05-10T08:22:22;96962.94;;;14.31;100.00
4814;BME280;15375;48.540;9.268;2023-05-10T08:24:48;96962.72;;;14.26;100.00
4814;BME280;15375;48.540;9.268;2023-05-10T08:27:13;96957.00;;;14.33;100.00
4814;BME280;15375;48.540;9.268;2023-05-10T08:29:38;96964.59;;;14.59;100.00
4814;BME280;15375;48.540;9.268;2023-05-10T08:32:04;96962.06;;;14.43;100.00
4814;BME280;15375;48.540;9.268;2023-05-10T08:34:29;96961.38;;;14.30;100.00
4814;BME280;15375;48.540;9.268;2023-05-10T08:36:56;96962.56;;;14.51;100.00
4814;BME280;15375;48.540;9.268;2023-05-10T08:39:21;96988.41;;;14.81;100.00
4814;BME280;15375;48.540;9.268;2023-05-10T08:41:50;96968.34;;;15.02;100.00
4814;BME280;15375;48.540;9.268;2023-05-10T08:44:16;96979.38;;;15.29;100.00
4814;BME280;15375;48.540;9.268;2023-05-10T08:46:46;96974.94;;;15.22;100.00
4814;BME280;15375;48.540;9.268;2023-05-10T08:49:13;96964.56;;;15.17;100.00
4814;BME280;15375;48.540;9.268;2023-05-10T08:51:44;97003.53;;;15.61;100.00
4814;BME280;15375;48.540;9.268;2023-05-10T08:54:12;97002.88;;;15.93;100.00
4814;BME280;15375;48.540;9.268;2023-05-10T08:56:38;96980.47;;;15.77;100.00
4814;BME280;15375;48.540;9.268;2023-05-10T08:59:03;96994.50;;;16.90;100.00
4814;BME280;15375;48.540;9.268;2023-05-10T09:01:31;96978.81;;;16.81;100.00
4814;BME280;15375;48.540;9.268;2023-05-10T09:03:57;96992.66;;;17.19;98.46
4814;BME280;15375;48.540;9.268;2023-05-10T09:06:23;96985.31;;;17.64;100.00
4814;BME280;15375;48.540;9.268;2023-05-10T09:08:49;96982.91;;;18.10;98.85
4814;BME280;15375;48.540;9.268;2023-05-10T09:11:15;96992.13;;;18.36;99.32
4814;BME280;15375;48.540;9.268;2023-05-10T09:13:41;96988.25;;;18.57;95.13
4814;BME280;15375;48.540;9.268;2023-05-10T09:16:07;96992.63;;;18.34;94.36
4814;BME280;15375;48.540;9.268;2023-05-10T09:18:32;96996.78;;;17.86;96.35
4814;BME280;15375;48.540;9.268;2023-05-10T09:20:58;96985.03;;;17.38;92.03
4814;BME280;15375;48.540;9.268;2023-05-10T09:23:23;97000.16;;;17.43;100.00
4814;BME280;15375;48.540;9.268;2023-05-10T09:26:06;96994.25;;;17.59;97.10
4814;BME280;15375;48.540;9.268;2023-05-10T09:28:54;97006.66;;;17.78;100.00
4814;BME280;15375;48.540;9.268;2023-05-10T09:31:18;97012.06;;;17.49;98.57
4814;BME280;15375;48.540;9.268;2023-05-10T09:33:48;97013.88;;;17.75;98.97
4814;BME280;15375;48.540;9.268;2023-05-10T09:36:13;97011.22;;;17.81;95.73
4814;BME280;15375;48.540;9.268;2023-05-10T09:38:50;97019.59;;;17.72;92.78
4814;BME280;15375;48.540;9.268;2023-05-10T09:43:43;97014.06;;;17.24;90.25
4814;BME280;15375;48.540;9.268;2023-05-10T09:46:09;97003.97;;;17.45;91.94
4814;BME280;15375;48.540;9.268;2023-05-10T09:48:45;97003.78;;;17.49;93.15
4814;BME280;15375;48.540;9.268;2023-05-10T09:51:16;97009.47;;;17.54;93.92
4814;BME280;15375;48.540;9.268;2023-05-10T09:53:43;97004.03;;;18.13;92.25
4814;BME280;15375;48.540;9.268;2023-05-10T09:56:08;97008.78;;;18.71;88.14
4814;BME280;15375;48.540;9.268;2023-05-10T09:58:36;96986.31;;;18.78;82.34
4814;BME280;15375;48.540;9.268;2023-05-10T10:01:03;96999.59;;;18.94;80.88
4814;BME280;15375;48.540;9.268;2023-05-10T10:03:29;96999.78;;;19.25;80.89
4814;BME280;15375;48.540;9.268;2023-05-10T10:05:55;97009.75;;;19.37;83.03
4814;BME280;15375;48.540;9.268;2023-05-10T10:08:21;96994.09;;;19.34;76.38
4814;BME280;15375;48.540;9.268;2023-05-10T10:10:47;96995.09;;;19.51;75.53
4814;BME280;15375;48.540;9.268;2023-05-10T10:13:12;96989.78;;;19.48;71.03
4814;BME280;15375;48.540;9.268;2023-05-10T10:15:38;96980.16;;;19.63;78.66
4814;BME280;15375;48.540;9.268;2023-05-10T10:18:05;96988.53;;;19.95;77.83
4814;BME280;15375;48.540;9.268;2023-05-10T10:20:31;96937.03;;;19.77;75.33
4814;BME280;15375;48.540;9.268;2023-05-10T10:22:56;97001.63;;;19.94;74.78
4814;BME280;15375;48.540;9.268;2023-05-10T10:25:22;96995.47;;;19.04;82.58
4814;BME280;15375;48.540;9.268;2023-05-10T10:33:29;97033.53;;;18.07;87.40
4814;BME280;15375;48.540;9.268;2023-05-10T10:36:00;97023.34;;;17.36;86.75
4814;BME280;15375;48.540;9.268;2023-05-10T10:38:36;97006.56;;;16.69;94.61
4814;BME280;15375;48.540;9.268;2023-05-10T10:41:11;97013.47;;;16.55;97.27
4814;BME280;15375;48.540;9.268;2023-05-10T10:52:26;97021.13;;;16.60;98.20
4814;BME280;15375;48.540;9.268;2023-05-10T10:55:00;97028.03;;;16.88;100.00
4814;BME280;15375;48.540;9.268;2023-05-10T10:57:27;96996.03;;;16.58;100.00
4814;BME280;15375;48.540;9.268;2023-05-10T11:00:32;97030.31;;;16.39;100.00
4814;BME280;15375;48.540;9.268;2023-05-10T11:03:11;97018.41;;;17.40;92.88
4814;BME280;15375;48.540;9.268;2023-05-10T11:05:45;97010.72;;;17.44;89.52
4814;BME280;15375;48.540;9.268;2023-05-10T11:08:27;96998.94;;;16.96;89.78
4814;BME280;15375;48.540;9.268;2023-05-10T11:13:39;97000.19;;;16.86;97.07
4814;BME280;15375;48.540;9.268;2023-05-10T11:16:18;97025.84;;;17.72;91.74
4814;BME280;15375;48.540;9.268;2023-05-10T11:18:59;97011.78;;;17.85;90.92
4814;BME280;15375;48.540;9.268;2023-05-10T11:21:27;97019.00;;;18.50;88.73
4814;BME280;15375;48.540;9.268;2023-05-10T11:23:54;97014.88;;;18.45;89.82
4814;BME280;15375;48.540;9.268;2023-05-10T11:26:22;97041.56;;;18.48;84.49
4814;BME280;15375;48.540;9.268;2023-05-10T11:28:52;97065.78;;;16.55;97.85
4814;BME280;15375;48.540;9.268;2023-05-10T11:31:19;97068.13;;;16.20;99.20
4814;BME280;15375;48.540;9.268;2023-05-10T11:33:51;97072.88;;;16.11;100.00
4814;BME280;15375;48.540;9.268;2023-05-10T11:36:21;97066.09;;;16.57;100.00
4814;BME280;15375;48.540;9.268;2023-05-10T11:38:47;97069.16;;;17.24;96.74
4814;BME280;15375;48.540;9.268;2023-05-10T11:41:16;97064.91;;;17.23;95.73
4814;BME280;15375;48.540;9.268;2023-05-10T11:43:42;97071.34;;;17.20;96.48
4814;BME280;15375;48.540;9.268;2023-05-10T11:46:10;97047.06;;;17.10;94.11
4814;BME280;15375;48.540;9.268;2023-05-10T11:48:38;97089.44;;;17.45;93.59
4814;BME280;15375;48.540;9.268;2023-05-10T11:51:04;97080.53;;;17.27;91.22
4814;BME280;15375;48.540;9.268;2023-05-10T11:53:31;97074.69;;;17.24;94.52
4814;BME280;15375;48.540;9.268;2023-05-10T11:56:07;97095.00;;;17.69;92.13
4814;BME280;15375;48.540;9.268;2023-05-10T11:58:33;97078.00;;;17.38;86.79
4814;BME280;15375;48.540;9.268;2023-05-10T12:01:00;97107.09;;;16.55;100.00
4814;BME280;15375;48.540;9.268;2023-05-10T12:03:27;97069.91;;;16.69;98.25
4814;BME280;15375;48.540;9.268;2023-05-10T12:05:53;97095.69;;;16.80;100.00
4814;BME280;15375;48.540;9.268;2023-05-10T12:08:21;97109.47;;;17.22;95.76
4814;BME280;15375;48.540;9.268;2023-05-10T12:10:47;97095.56;;;17.49;94.50
4814;BME280;15375;48.540;9.268;2023-05-10T12:13:13;97105.22;;;17.45;88.00
4814;BME280;15375;48.540;9.268;2023-05-10T12:15:39;97099.44;;;16.50;93.72
4814;BME280;15375;48.540;9.268;2023-05-10T12:18:05;97111.53;;;16.25;97.26
4814;BME280;15375;48.540;9.268;2023-05-10T12:20:30;97102.34;;;16.37;98.89
4814;BME280;15375;48.540;9.268;2023-05-10T12:22:58;97099.16;;;16.12;100.00
4814;BME280;15375;48.540;9.268;2023-05-10T12:25:29;97086.03;;;15.12;100.00
4814;BME280;15375;48.540;9.268;2023-05-10T12:27:56;97075.94;;;15.09;100.00
4814;BME280;15375;48.540;9.268;2023-05-10T12:30:23;97095.53;;;15.20;100.00
4814;BME280;15375;48.540;9.268;2023-05-10T12:32:50;97088.13;;;15.57;100.00
4814;BME280;15375;48.540;9.268;2023-05-10T12:35:16;97104.84;;;15.23;100.00
4814;BME280;15375;48.540;9.268;2023-05-10T12:37:44;97047.59;;;14.73;100.00
4814;BME280;15375;48.540;9.268;2023-05-10T12:40:10;97024.31;;;14.25;100.00
4814;BME280;15375;48.540;9.268;2023-05-10T12:42:37;97095.66;;;15.26;100.00
4814;BME280;15375;48.540;9.268;2023-05-10T12:45:04;97099.44;;;15.59;100.00
4814;BME280;15375;48.540;9.268;2023-05-10T12:47:34;97026.38;;;15.22;100.00
4814;BME280;15375;48.540;9.268;2023-05-10T12:50:01;97097.94;;;15.85;100.00
4814;BME280;15375;48.540;9.268;2023-05-10T12:52:27;97092.16;;;16.11;100.00
4814;BME280;15375;48.540;9.268;2023-05-10T12:54:53;97086.78;;;16.16;100.00
4814;BME280;15375;48.540;9.268;2023-05-10T12:57:20;97061.13;;;16.10;100.00
4814;BME280;15375;48.540;9.268;2023-05-10T12:59:45;97077.44;;;16.41;98.35
4814;BME280;15375;48.540;9.268;2023-05-10T13:02:11;97062.47;;;15.96;100.00
4814;BME280;15375;48.540;9.268;2023-05-10T13:04:36;97057.16;;;15.84;93.41
4814;BME280;15375;48.540;9.268;2023-05-10T13:07:05;97074.41;;;15.75;91.14
4814;BME280;15375;48.540;9.268;2023-05-10T13:09:31;97082.19;;;16.22;100.00
4814;BME280;15375;48.540;9.268;2023-05-10T13:11:56;97061.09;;;16.28;100.00
4814;BME280;15375;48.540;9.268;2023-05-10T13:14:22;97073.91;;;16.40;94.62
4814;BME280;15375;48.540;9.268;2023-05-10T13:16:47;97066.38;;;16.50;96.42
4814;BME280;15375;48.540;9.268;2023-05-10T13:19:13;97075.59;;;16.56;92.59
4814;BME280;15375;48.540;9.268;2023-05-10T13:21:39;97071.34;;;16.10;93.99
4814;BME280;15375;48.540;9.268;2023-05-10T13:24:06;97066.16;;;16.12;92.45
4814;BME280;15375;48.540;9.268;2023-05-10T13:26:32;97056.97;;;16.15;98.16
4814;BME280;15375;48.540;9.268;2023-05-10T13:28:57;97075.41;;;16.50;100.00
4814;BME280;15375;48.540;9.268;2023-05-10T13:31:22;97074.97;;;16.52;94.09
4814;BME280;15375;48.540;9.268;2023-05-10T13:33:48;97041.41;;;15.84;93.55
4814;BME280;15375;48.540;9.268;2023-05-10T13:36:13;97060.97;;;15.77;89.94
4814;BME280;15375;48.540;9.268;2023-05-10T13:38:38;97066.44;;;15.59;90.96